sensor_id;sensor_type;location;lat;lon;timestamp;temperature;humidity
75994;DHT22;64680;53.800;9.988;2023-02-16T00:01:56;1.50;78.00
75994;DHT22;64680;53.800;9.988;2023-02-16T00:04:29;1.50;78.00
75994;DHT22;64680;53.800;9.988;2023-02-16T00:06:56;1.60;77.70
75994;DHT22;64680;53.800;9.988;2023-02-16T00:09:23;1.60;77.70
75994;DHT22;64680;53.800;9.988;2023-02-16T00:11:50;1.70;77.90
75994;DHT22;64680;53.800;9.988;2023-02-16T00:14:36;1.80;78.00
75994;DHT22;64680;53.800;9.988;2023-02-16T00:17:03;1.80;77.90
75994;DHT22;64680;53.800;9.988;2023-02-16T00:19:34;1.90;79.10
75994;DHT22;64680;53.800;9.988;2023-02-16T00:22:00;1.90;78.30
75994;DHT22;64680;53.800;9.988;2023-02-16T00:24:27;1.90;78.50
75994;DHT22;64680;53.800;9.988;2023-02-16T00:26:54;1.90;78.70
75994;DHT22;64680;53.800;9.988;2023-02-16T00:31:53;1.90;78.70
75994;DHT22;64680;53.800;9.988;2023-02-16T00:36:56;1.90;79.10
75994;DHT22;64680;53.800;9.988;2023-02-16T00:39:23;1.80;79.20
75994;DHT22;64680;53.800;9.988;2023-02-16T00:41:50;1.80;79.40
75994;DHT22;64680;53.800;9.988;2023-02-16T00:44:29;1.80;79.40
75994;DHT22;64680;53.800;9.988;2023-02-16T00:46:55;1.80;79.60
75994;DHT22;64680;53.800;9.988;2023-02-16T00:49:21;1.80;79.50
75994;DHT22;64680;53.800;9.988;2023-02-16T00:51:48;1.80;79.70
75994;DHT22;64680;53.800;9.988;2023-02-16T00:54:14;1.70;79.80
75994;DHT22;64680;53.800;9.988;2023-02-16T00:56:40;1.70;80.00
75994;DHT22;64680;53.800;9.988;2023-02-16T00:59:11;1.70;80.00
75994;DHT22;64680;53.800;9.988;2023-02-16T01:01:39;1.70;80.00
75994;DHT22;64680;53.800;9.988;2023-02-16T01:04:06;1.70;80.10
75994;DHT22;64680;53.800;9.988;2023-02-16T01:06:32;1.70;80.00
75994;DHT22;64680;53.800;9.988;2023-02-16T01:09:18;1.70;80.10
75994;DHT22;64680;53.800;9.988;2023-02-16T01:12:07;1.70;80.00
75994;DHT22;64680;53.800;9.988;2023-02-16T01:14:34;1.70;80.20
75994;DHT22;64680;53.800;9.988;2023-02-16T01:16:59;1.70;80.10
75994;DHT22;64680;53.800;9.988;2023-02-16T01:19:25;1.70;80.20
75994;DHT22;64680;53.800;9.988;2023-02-16T01:21:51;1.70;80.40
75994;DHT22;64680;53.800;9.988;2023-02-16T01:24:16;1.70;80.50
75994;DHT22;64680;53.800;9.988;2023-02-16T01:26:49;1.60;80.50
75994;DHT22;64680;53.800;9.988;2023-02-16T01:29:17;1.60;80.60
75994;DHT22;64680;53.800;9.988;2023-02-16T01:31:43;1.50;80.70
75994;DHT22;64680;53.800;9.988;2023-02-16T01:34:10;1.50;80.50
75994;DHT22;64680;53.800;9.988;2023-02-16T01:36:38;1.50;80.60
75994;DHT22;64680;53.800;9.988;2023-02-16T01:39:05;1.50;80.80
75994;DHT22;64680;53.800;9.988;2023-02-16T01:44:20;1.30;80.80
75994;DHT22;64680;53.800;9.988;2023-02-16T01:46:56;1.30;80.70
75994;DHT22;64680;53.800;9.988;2023-02-16T01:49:23;1.30;80.70
75994;DHT22;64680;53.800;9.988;2023-02-16T01:52:01;1.30;80.50
75994;DHT22;64680;53.800;9.988;2023-02-16T01:54:40;1.30;80.60
75994;DHT22;64680;53.800;9.988;2023-02-16T01:59:58;1.40;80.40
75994;DHT22;64680;53.800;9.988;2023-02-16T02:02:26;1.50;80.50
75994;DHT22;64680;53.800;9.988;2023-02-16T02:05:04;1.50;80.30
75994;DHT22;64680;53.800;9.988;2023-02-16T02:11:02;1.70;80.40
75994;DHT22;64680;53.800;9.988;2023-02-16T02:13:51;1.70;80.50
75994;DHT22;64680;53.800;9.988;2023-02-16T02:16:20;1.80;80.50
75994;DHT22;64680;53.800;9.988;2023-02-16T02:18:47;1.90;80.60
75994;DHT22;64680;53.800;9.988;2023-02-16T02:24:43;1.90;81.10
75994;DHT22;64680;53.800;9.988;2023-02-16T02:27:26;1.90;81.20
75994;DHT22;64680;53.800;9.988;2023-02-16T02:30:13;1.90;81.40
75994;DHT22;64680;53.800;9.988;2023-02-16T02:35:40;1.90;81.60
75994;DHT22;64680;53.800;9.988;2023-02-16T02:38:31;2.00;81.60
75994;DHT22;64680;53.800;9.988;2023-02-16T02:41:33;2.10;82.00
75994;DHT22;64680;53.800;9.988;2023-02-16T02:44:23;2.10;82.40
75994;DHT22;64680;53.800;9.988;2023-02-16T02:46:51;2.10;82.10
75994;DHT22;64680;53.800;9.988;2023-02-16T02:49:20;2.10;82.20
75994;DHT22;64680;53.800;9.988;2023-02-16T02:51:46;2.10;82.20
75994;DHT22;64680;53.800;9.988;2023-02-16T02:54:36;2.10;82.10
75994;DHT22;64680;53.800;9.988;2023-02-16T02:57:40;2.10;82.10
75994;DHT22;64680;53.800;9.988;2023-02-16T03:00:34;2.10;82.10
75994;DHT22;64680;53.800;9.988;2023-02-16T03:03:32;2.10;82.10
75994;DHT22;64680;53.800;9.988;2023-02-16T03:08:34;2.10;82.00
75994;DHT22;64680;53.800;9.988;2023-02-16T03:11:05;2.20;81.90
75994;DHT22;64680;53.800;9.988;2023-02-16T03:13:55;2.10;81.80
75994;DHT22;64680;53.800;9.988;2023-02-16T03:16:26;2.00;81.60
75994;DHT22;64680;53.800;9.988;2023-02-16T03:18:55;2.00;81.40
75994;DHT22;64680;53.800;9.988;2023-02-16T03:21:40;2.00;81.60
75994;DHT22;64680;53.800;9.988;2023-02-16T03:24:27;1.90;81.50
75994;DHT22;64680;53.800;9.988;2023-02-16T03:27:15;1.80;81.30
75994;DHT22;64680;53.800;9.988;2023-02-16T03:30:00;1.90;81.70
75994;DHT22;64680;53.800;9.988;2023-02-16T03:32:26;1.90;81.90
75994;DHT22;64680;53.800;9.988;2023-02-16T03:34:52;1.90;81.80
75994;DHT22;64680;53.800;9.988;2023-02-16T03:37:18;1.90;81.70
75994;DHT22;64680;53.800;9.988;2023-02-16T03:39:44;1.90;81.80
75994;DHT22;64680;53.800;9.988;2023-02-16T03:42:28;2.00;81.80
75994;DHT22;64680;53.800;9.988;2023-02-16T03:44:53;2.00;81.70
75994;DHT22;64680;53.800;9.988;2023-02-16T03:47:19;2.10;81.70
75994;DHT22;64680;53.800;9.988;2023-02-16T03:49:45;2.10;81.60
75994;DHT22;64680;53.800;9.988;2023-02-16T03:52:11;2.10;81.30
75994;DHT22;64680;53.800;9.988;2023-02-16T03:54:36;2.10;81.00
75994;DHT22;64680;53.800;9.988;2023-02-16T03:57:02;2.10;80.90
75994;DHT22;64680;53.800;9.988;2023-02-16T03:59:28;2.10;80.70
75994;DHT22;64680;53.800;9.988;2023-02-16T04:01:53;2.00;80.50
75994;DHT22;64680;53.800;9.988;2023-02-16T04:04:19;1.90;80.40
75994;DHT22;64680;53.800;9.988;2023-02-16T04:06:45;1.90;80.10
75994;DHT22;64680;53.800;9.988;2023-02-16T04:09:10;1.90;80.20
75994;DHT22;64680;53.800;9.988;2023-02-16T04:11:36;1.80;80.40
75994;DHT22;64680;53.800;9.988;2023-02-16T04:14:20;1.80;80.50
75994;DHT22;64680;53.800;9.988;2023-02-16T04:16:46;1.80;80.70
75994;DHT22;64680;53.800;9.988;2023-02-16T04:19:12;1.80;80.70
75994;DHT22;64680;53.800;9.988;2023-02-16T04:21:38;1.80;80.70
75994;DHT22;64680;53.800;9.988;2023-02-16T04:24:04;1.80;80.50
75994;DHT22;64680;53.800;9.988;2023-02-16T04:26:33;1.70;80.40
75994;DHT22;64680;53.800;9.988;2023-02-16T04:28:59;1.70;80.60
75994;DHT22;64680;53.800;9.988;2023-02-16T04:31:24;1.70;81.00
75994;DHT22;64680;53.800;9.988;2023-02-16T04:33:50;1.70;80.90
75994;DHT22;64680;53.800;9.988;2023-02-16T04:36:16;1.80;80.70
75994;DHT22;64680;53.800;9.988;2023-02-16T04:38:41;1.70;80.80
75994;DHT22;64680;53.800;9.988;2023-02-16T04:41:07;1.70;80.70
75994;DHT22;64680;53.800;9.988;2023-02-16T04:43:32;1.70;80.60
75994;DHT22;64680;53.800;9.988;2023-02-16T04:45:58;1.70;80.40
75994;DHT22;64680;53.800;9.988;2023-02-16T04:48:25;1.60;80.20
75994;DHT22;64680;53.800;9.988;2023-02-16T04:50:50;1.60;80.20
75994;DHT22;64680;53.800;9.988;2023-02-16T04:53:16;1.60;80.30
75994;DHT22;64680;53.800;9.988;2023-02-16T04:55:49;1.50;80.30
75994;DHT22;64680;53.800;9.988;2023-02-16T04:58:15;1.60;80.50
75994;DHT22;64680;53.800;9.988;2023-02-16T05:00:41;1.60;80.70
75994;DHT22;64680;53.800;9.988;2023-02-16T05:03:07;1.60;80.70
75994;DHT22;64680;53.800;9.988;2023-02-16T05:05:33;1.70;80.90
75994;DHT22;64680;53.800;9.988;2023-02-16T05:08:00;1.60;80.60
75994;DHT22;64680;53.800;9.988;2023-02-16T05:10:26;1.70;81.50
75994;DHT22;64680;53.800;9.988;2023-02-16T05:12:51;1.70;80.80
75994;DHT22;64680;53.800;9.988;2023-02-16T05:15:35;1.60;80.50
75994;DHT22;64680;53.800;9.988;2023-02-16T05:18:01;1.60;80.50
75994;DHT22;64680;53.800;9.988;2023-02-16T05:20:27;1.60;80.40
75994;DHT22;64680;53.800;9.988;2023-02-16T05:23:12;1.70;80.70
75994;DHT22;64680;53.800;9.988;2023-02-16T05:25:38;1.70;80.60
75994;DHT22;64680;53.800;9.988;2023-02-16T05:28:03;1.70;80.70
75994;DHT22;64680;53.800;9.988;2023-02-16T05:30:29;1.70;80.40
75994;DHT22;64680;53.800;9.988;2023-02-16T05:32:54;1.80;80.50
75994;DHT22;64680;53.800;9.988;2023-02-16T05:35:20;1.80;80.40
75994;DHT22;64680;53.800;9.988;2023-02-16T05:37:46;1.90;79.90
75994;DHT22;64680;53.800;9.988;2023-02-16T05:40:11;1.90;79.60
75994;DHT22;64680;53.800;9.988;2023-02-16T05:42:37;1.90;79.50
75994;DHT22;64680;53.800;9.988;2023-02-16T05:45:03;1.90;79.30
75994;DHT22;64680;53.800;9.988;2023-02-16T05:47:28;1.90;79.30
75994;DHT22;64680;53.800;9.988;2023-02-16T05:49:54;2.00;79.30
75994;DHT22;64680;53.800;9.988;2023-02-16T05:52:20;2.00;78.80
75994;DHT22;64680;53.800;9.988;2023-02-16T05:54:45;2.00;78.30
75994;DHT22;64680;53.800;9.988;2023-02-16T05:57:11;2.00;77.90
75994;DHT22;64680;53.800;9.988;2023-02-16T05:59:36;2.00;77.70
75994;DHT22;64680;53.800;9.988;2023-02-16T06:02:02;2.00;77.10
75994;DHT22;64680;53.800;9.988;2023-02-16T06:04:28;2.00;77.10
75994;DHT22;64680;53.800;9.988;2023-02-16T06:06:54;2.00;76.90
75994;DHT22;64680;53.800;9.988;2023-02-16T06:09:20;2.00;76.90
75994;DHT22;64680;53.800;9.988;2023-02-16T06:11:45;2.00;76.90
75994;DHT22;64680;53.800;9.988;2023-02-16T06:14:16;2.10;77.00
75994;DHT22;64680;53.800;9.988;2023-02-16T06:16:43;2.10;76.90
75994;DHT22;64680;53.800;9.988;2023-02-16T06:19:10;2.10;76.80
75994;DHT22;64680;53.800;9.988;2023-02-16T06:21:37;2.10;76.20
75994;DHT22;64680;53.800;9.988;2023-02-16T06:24:03;2.10;76.20
75994;DHT22;64680;53.800;9.988;2023-02-16T06:26:29;2.10;77.00
75994;DHT22;64680;53.800;9.988;2023-02-16T06:28:55;2.20;76.00
75994;DHT22;64680;53.800;9.988;2023-02-16T06:31:21;2.20;75.40
75994;DHT22;64680;53.800;9.988;2023-02-16T06:33:48;2.20;75.20
75994;DHT22;64680;53.800;9.988;2023-02-16T06:36:14;2.30;74.60
75994;DHT22;64680;53.800;9.988;2023-02-16T06:38:40;2.30;74.00
75994;DHT22;64680;53.800;9.988;2023-02-16T06:41:06;2.30;73.50
75994;DHT22;64680;53.800;9.988;2023-02-16T06:43:32;2.30;73.50
75994;DHT22;64680;53.800;9.988;2023-02-16T06:45:57;2.30;73.40
75994;DHT22;64680;53.800;9.988;2023-02-16T06:48:23;2.30;74.20
75994;DHT22;64680;53.800;9.988;2023-02-16T06:50:48;2.40;72.80
75994;DHT22;64680;53.800;9.988;2023-02-16T06:53:14;2.40;72.60
75994;DHT22;64680;53.800;9.988;2023-02-16T06:55:39;2.50;72.90
75994;DHT22;64680;53.800;9.988;2023-02-16T06:58:06;2.50;72.60
75994;DHT22;64680;53.800;9.988;2023-02-16T07:00:32;2.50;71.70
75994;DHT22;64680;53.800;9.988;2023-02-16T07:02:59;2.60;71.40
75994;DHT22;64680;53.800;9.988;2023-02-16T07:05:25;2.60;71.70
75994;DHT22;64680;53.800;9.988;2023-02-16T07:07:50;2.60;70.50
75994;DHT22;64680;53.800;9.988;2023-02-16T07:10:17;2.70;69.80
75994;DHT22;64680;53.800;9.988;2023-02-16T07:12:44;2.80;69.30
75994;DHT22;64680;53.800;9.988;2023-02-16T07:15:10;2.80;69.10
75994;DHT22;64680;53.800;9.988;2023-02-16T07:17:36;2.80;69.80
75994;DHT22;64680;53.800;9.988;2023-02-16T07:20:02;2.90;69.60
75994;DHT22;64680;53.800;9.988;2023-02-16T07:22:29;2.90;69.80
75994;DHT22;64680;53.800;9.988;2023-02-16T07:24:54;3.00;67.90
75994;DHT22;64680;53.800;9.988;2023-02-16T07:27:21;3.00;67.90
75994;DHT22;64680;53.800;9.988;2023-02-16T07:29:47;3.00;67.90
75994;DHT22;64680;53.800;9.988;2023-02-16T07:32:13;3.10;67.60
75994;DHT22;64680;53.800;9.988;2023-02-16T07:34:38;3.10;66.70
75994;DHT22;64680;53.800;9.988;2023-02-16T07:37:04;3.20;67.10
75994;DHT22;64680;53.800;9.988;2023-02-16T07:39:30;3.20;65.10
75994;DHT22;64680;53.800;9.988;2023-02-16T07:41:56;3.30;63.80
75994;DHT22;64680;53.800;9.988;2023-02-16T07:44:21;3.30;63.20
75994;DHT22;64680;53.800;9.988;2023-02-16T07:46:47;3.40;63.30
75994;DHT22;64680;53.800;9.988;2023-02-16T07:49:12;3.40;62.90
75994;DHT22;64680;53.800;9.988;2023-02-16T07:51:38;3.40;62.40
75994;DHT22;64680;53.800;9.988;2023-02-16T07:54:05;3.50;61.60
75994;DHT22;64680;53.800;9.988;2023-02-16T07:56:32;3.60;62.60
75994;DHT22;64680;53.800;9.988;2023-02-16T07:59:14;3.60;60.70
75994;DHT22;64680;53.800;9.988;2023-02-16T08:01:40;3.70;60.30
75994;DHT22;64680;53.800;9.988;2023-02-16T08:04:06;3.70;60.10
75994;DHT22;64680;53.800;9.988;2023-02-16T08:06:35;3.80;58.80
75994;DHT22;64680;53.800;9.988;2023-02-16T08:09:01;3.80;59.30
75994;DHT22;64680;53.800;9.988;2023-02-16T08:11:27;3.90;57.90
75994;DHT22;64680;53.800;9.988;2023-02-16T08:13:53;3.90;57.90
75994;DHT22;64680;53.800;9.988;2023-02-16T08:16:21;4.00;57.90
75994;DHT22;64680;53.800;9.988;2023-02-16T08:18:47;4.00;56.80
75994;DHT22;64680;53.800;9.988;2023-02-16T08:21:21;4.10;57.40
75994;DHT22;64680;53.800;9.988;2023-02-16T08:24:14;4.10;55.80
75994;DHT22;64680;53.800;9.988;2023-02-16T08:26:41;4.10;55.80
75994;DHT22;64680;53.800;9.988;2023-02-16T08:29:08;4.10;55.20
75994;DHT22;64680;53.800;9.988;2023-02-16T08:31:35;4.10;55.70
75994;DHT22;64680;53.800;9.988;2023-02-16T08:34:02;4.20;54.90
75994;DHT22;64680;53.800;9.988;2023-02-16T08:36:34;4.20;56.10
75994;DHT22;64680;53.800;9.988;2023-02-16T08:39:02;4.30;55.90
75994;DHT22;64680;53.800;9.988;2023-02-16T08:41:30;4.30;56.20
75994;DHT22;64680;53.800;9.988;2023-02-16T08:43:56;4.40;56.20
75994;DHT22;64680;53.800;9.988;2023-02-16T08:46:22;4.40;55.00
75994;DHT22;64680;53.800;9.988;2023-02-16T08:48:48;4.50;54.80
75994;DHT22;64680;53.800;9.988;2023-02-16T08:51:15;4.60;53.80
75994;DHT22;64680;53.800;9.988;2023-02-16T08:53:42;4.60;53.40
75994;DHT22;64680;53.800;9.988;2023-02-16T08:56:09;4.70;52.90
75994;DHT22;64680;53.800;9.988;2023-02-16T08:58:36;4.70;53.60
75994;DHT22;64680;53.800;9.988;2023-02-16T09:01:05;4.90;53.60
75994;DHT22;64680;53.800;9.988;2023-02-16T09:03:33;4.90;50.00
75994;DHT22;64680;53.800;9.988;2023-02-16T09:06:01;5.00;52.20
75994;DHT22;64680;53.800;9.988;2023-02-16T09:08:27;5.00;50.50
75994;DHT22;64680;53.800;9.988;2023-02-16T09:10:53;5.00;51.20
75994;DHT22;64680;53.800;9.988;2023-02-16T09:13:19;5.10;51.00
75994;DHT22;64680;53.800;9.988;2023-02-16T09:15:44;5.20;50.30
75994;DHT22;64680;53.800;9.988;2023-02-16T09:18:12;5.40;48.90
75994;DHT22;64680;53.800;9.988;2023-02-16T09:20:40;5.60;48.60
75994;DHT22;64680;53.800;9.988;2023-02-16T09:23:07;5.70;46.70
75994;DHT22;64680;53.800;9.988;2023-02-16T09:25:34;5.80;46.20
75994;DHT22;64680;53.800;9.988;2023-02-16T09:28:00;5.90;44.40
75994;DHT22;64680;53.800;9.988;2023-02-16T09:30:26;5.80;42.60
75994;DHT22;64680;53.800;9.988;2023-02-16T09:32:52;5.90;44.10
75994;DHT22;64680;53.800;9.988;2023-02-16T09:35:17;5.90;46.50
75994;DHT22;64680;53.800;9.988;2023-02-16T09:37:43;6.00;44.90
75994;DHT22;64680;53.800;9.988;2023-02-16T09:40:11;6.20;44.00
75994;DHT22;64680;53.800;9.988;2023-02-16T09:43:05;6.30;44.10
75994;DHT22;64680;53.800;9.988;2023-02-16T09:45:40;6.40;42.50
75994;DHT22;64680;53.800;9.988;2023-02-16T09:48:55;6.70;40.20
75994;DHT22;64680;53.800;9.988;2023-02-16T09:50:57;6.80;39.70
75994;DHT22;64680;53.800;9.988;2023-02-16T09:53:36;7.10;38.60
75994;DHT22;64680;53.800;9.988;2023-02-16T09:56:28;7.40;36.70
75994;DHT22;64680;53.800;9.988;2023-02-16T10:09:52;6.60;49.70
75994;DHT22;64680;53.800;9.988;2023-02-16T10:12:24;6.40;53.00
75994;DHT22;64680;53.800;9.988;2023-02-16T10:14:55;6.30;53.70
75994;DHT22;64680;53.800;9.988;2023-02-16T10:17:27;6.30;54.00
75994;DHT22;64680;53.800;9.988;2023-02-16T10:27:38;6.10;54.60
75994;DHT22;64680;53.800;9.988;2023-02-16T10:30:18;6.10;55.10
75994;DHT22;64680;53.800;9.988;2023-02-16T10:33:01;6.00;54.70
75994;DHT22;64680;53.800;9.988;2023-02-16T10:35:50;6.10;55.20
75994;DHT22;64680;53.800;9.988;2023-02-16T10:38:42;6.00;56.80
75994;DHT22;64680;53.800;9.988;2023-02-16T10:44:10;6.30;54.60
75994;DHT22;64680;53.800;9.988;2023-02-16T10:46:42;6.40;55.10
75994;DHT22;64680;53.800;9.988;2023-02-16T10:49:13;6.60;55.30
75994;DHT22;64680;53.800;9.988;2023-02-16T10:51:41;6.80;53.00
75994;DHT22;64680;53.800;9.988;2023-02-16T10:54:17;7.00;50.60
75994;DHT22;64680;53.800;9.988;2023-02-16T10:59:42;7.10;48.20
75994;DHT22;64680;53.800;9.988;2023-02-16T11:02:27;7.20;45.60
75994;DHT22;64680;53.800;9.988;2023-02-16T11:04:55;7.30;44.50
75994;DHT22;64680;53.800;9.988;2023-02-16T11:07:26;7.50;44.10
75994;DHT22;64680;53.800;9.988;2023-02-16T11:09:54;7.80;42.80
75994;DHT22;64680;53.800;9.988;2023-02-16T11:17:27;7.80;40.80
75994;DHT22;64680;53.800;9.988;2023-02-16T11:20:00;7.70;41.40
75994;DHT22;64680;53.800;9.988;2023-02-16T11:22:36;7.70;42.30
75994;DHT22;64680;53.800;9.988;2023-02-16T11:25:23;7.80;41.10
75994;DHT22;64680;53.800;9.988;2023-02-16T11:27:51;7.70;43.40
75994;DHT22;64680;53.800;9.988;2023-02-16T11:30:26;7.70;43.70
75994;DHT22;64680;53.800;9.988;2023-02-16T11:32:54;7.80;42.30
75994;DHT22;64680;53.800;9.988;2023-02-16T11:35:21;7.70;43.10
75994;DHT22;64680;53.800;9.988;2023-02-16T11:37:46;7.70;44.10
75994;DHT22;64680;53.800;9.988;2023-02-16T11:40:22;7.80;43.60
75994;DHT22;64680;53.800;9.988;2023-02-16T11:42:53;7.90;41.60
75994;DHT22;64680;53.800;9.988;2023-02-16T11:47:57;7.90;39.40
75994;DHT22;64680;53.800;9.988;2023-02-16T11:50:38;8.00;41.40
75994;DHT22;64680;53.800;9.988;2023-02-16T11:55:47;8.00;41.30
75994;DHT22;64680;53.800;9.988;2023-02-16T11:58:23;8.00;41.00
75994;DHT22;64680;53.800;9.988;2023-02-16T12:01:21;8.00;41.20
75994;DHT22;64680;53.800;9.988;2023-02-16T12:06:50;7.70;43.00
75994;DHT22;64680;53.800;9.988;2023-02-16T12:12:17;7.60;44.20
75994;DHT22;64680;53.800;9.988;2023-02-16T12:32:31;7.90;43.20
75994;DHT22;64680;53.800;9.988;2023-02-16T12:35:34;7.80;43.40
75994;DHT22;64680;53.800;9.988;2023-02-16T12:38:16;7.70;44.00
75994;DHT22;64680;53.800;9.988;2023-02-16T12:43:44;7.70;45.50
75994;DHT22;64680;53.800;9.988;2023-02-16T12:46:31;7.60;45.80
75994;DHT22;64680;53.800;9.988;2023-02-16T12:51:46;7.50;45.80
75994;DHT22;64680;53.800;9.988;2023-02-16T12:54:50;7.40;47.10
75994;DHT22;64680;53.800;9.988;2023-02-16T12:57:23;7.20;48.70
75994;DHT22;64680;53.800;9.988;2023-02-16T13:00:40;7.20;51.20
75994;DHT22;64680;53.800;9.988;2023-02-16T13:02:46;7.20;50.30
75994;DHT22;64680;53.800;9.988;2023-02-16T13:05:30;7.20;50.00
75994;DHT22;64680;53.800;9.988;2023-02-16T13:08:21;7.20;50.10
75994;DHT22;64680;53.800;9.988;2023-02-16T13:10:56;7.10;51.50
75994;DHT22;64680;53.800;9.988;2023-02-16T13:13:31;7.20;49.60
75994;DHT22;64680;53.800;9.988;2023-02-16T13:16:15;7.20;51.20
75994;DHT22;64680;53.800;9.988;2023-02-16T13:18:44;7.30;51.50
75994;DHT22;64680;53.800;9.988;2023-02-16T13:21:37;7.40;49.90
75994;DHT22;64680;53.800;9.988;2023-02-16T13:29:44;7.40;51.70
75994;DHT22;64680;53.800;9.988;2023-02-16T13:32:35;7.40;52.90
75994;DHT22;64680;53.800;9.988;2023-02-16T13:40:26;7.20;53.70
75994;DHT22;64680;53.800;9.988;2023-02-16T13:43:04;7.30;54.50
75994;DHT22;64680;53.800;9.988;2023-02-16T13:45:41;7.30;53.90
75994;DHT22;64680;53.800;9.988;2023-02-16T13:48:14;7.30;55.10
75994;DHT22;64680;53.800;9.988;2023-02-16T13:50:40;7.20;55.50
75994;DHT22;64680;53.800;9.988;2023-02-16T13:53:16;7.30;55.90
75994;DHT22;64680;53.800;9.988;2023-02-16T13:55:43;7.30;56.30
75994;DHT22;64680;53.800;9.988;2023-02-16T14:00:38;7.30;56.40
75994;DHT22;64680;53.800;9.988;2023-02-16T14:05:44;7.20;58.10
75994;DHT22;64680;53.800;9.988;2023-02-16T14:08:18;7.20;58.70
75994;DHT22;64680;53.800;9.988;2023-02-16T14:18:46;7.20;61.50
75994;DHT22;64680;53.800;9.988;2023-02-16T14:21:40;7.10;64.30
75994;DHT22;64680;53.800;9.988;2023-02-16T14:24:11;7.00;65.80
75994;DHT22;64680;53.800;9.988;2023-02-16T14:27:01;7.00;66.70
75994;DHT22;64680;53.800;9.988;2023-02-16T14:29:37;7.00;66.70
75994;DHT22;64680;53.800;9.988;2023-02-16T14:34:40;6.90;68.20
75994;DHT22;64680;53.800;9.988;2023-02-16T14:37:30;7.00;68.00
75994;DHT22;64680;53.800;9.988;2023-02-16T14:40:03;6.90;68.30
75994;DHT22;64680;53.800;9.988;2023-02-16T14:42:35;6.90;68.20
75994;DHT22;64680;53.800;9.988;2023-02-16T14:48:33;6.80;69.40
75994;DHT22;64680;53.800;9.988;2023-02-16T14:56:53;6.90;71.70
75994;DHT22;64680;53.800;9.988;2023-02-16T14:59:35;6.90;71.70
75994;DHT22;64680;53.800;9.988;2023-02-16T15:04:49;6.80;73.60
75994;DHT22;64680;53.800;9.988;2023-02-16T15:07:15;6.90;73.80
75994;DHT22;64680;53.800;9.988;2023-02-16T15:09:44;6.90;74.10
75994;DHT22;64680;53.800;9.988;2023-02-16T15:12:12;6.80;74.90
75994;DHT22;64680;53.800;9.988;2023-02-16T15:14:50;6.80;75.20
75994;DHT22;64680;53.800;9.988;2023-02-16T15:20:00;6.80;77.00
75994;DHT22;64680;53.800;9.988;2023-02-16T15:22:26;6.70;77.80
75994;DHT22;64680;53.800;9.988;2023-02-16T15:25:01;6.70;78.30
75994;DHT22;64680;53.800;9.988;2023-02-16T15:27:28;6.70;78.60
75994;DHT22;64680;53.800;9.988;2023-02-16T15:30:16;6.70;79.40
75994;DHT22;64680;53.800;9.988;2023-02-16T15:33:10;6.60;79.80
75994;DHT22;64680;53.800;9.988;2023-02-16T15:35:40;6.60;80.10
75994;DHT22;64680;53.800;9.988;2023-02-16T15:38:20;6.60;80.80
75994;DHT22;64680;53.800;9.988;2023-02-16T15:40:50;6.60;81.40
75994;DHT22;64680;53.800;9.988;2023-02-16T15:45:51;6.50;81.80
75994;DHT22;64680;53.800;9.988;2023-02-16T15:50:56;6.60;82.20
75994;DHT22;64680;53.800;9.988;2023-02-16T15:53:51;6.50;82.70
75994;DHT22;64680;53.800;9.988;2023-02-16T15:58:47;6.50;82.90
75994;DHT22;64680;53.800;9.988;2023-02-16T16:01:22;6.50;83.00
75994;DHT22;64680;53.800;9.988;2023-02-16T16:03:48;6.60;83.20
75994;DHT22;64680;53.800;9.988;2023-02-16T16:06:14;6.50;83.10
75994;DHT22;64680;53.800;9.988;2023-02-16T16:08:40;6.50;83.30
75994;DHT22;64680;53.800;9.988;2023-02-16T16:11:06;6.50;83.30
75994;DHT22;64680;53.800;9.988;2023-02-16T16:13:33;6.50;83.30
75994;DHT22;64680;53.800;9.988;2023-02-16T16:15:59;6.50;83.60
75994;DHT22;64680;53.800;9.988;2023-02-16T16:18:51;6.50;83.50
75994;DHT22;64680;53.800;9.988;2023-02-16T16:21:24;6.50;83.70
75994;DHT22;64680;53.800;9.988;2023-02-16T16:24:08;6.50;83.70
75994;DHT22;64680;53.800;9.988;2023-02-16T16:26:58;6.40;83.60
75994;DHT22;64680;53.800;9.988;2023-02-16T16:29:37;6.40;83.80
75994;DHT22;64680;53.800;9.988;2023-02-16T16:32:06;6.40;83.80
75994;DHT22;64680;53.800;9.988;2023-02-16T16:34:40;6.40;83.90
75994;DHT22;64680;53.800;9.988;2023-02-16T16:39:43;6.40;83.80
75994;DHT22;64680;53.800;9.988;2023-02-16T16:42:22;6.40;83.80
75994;DHT22;64680;53.800;9.988;2023-02-16T16:44:54;6.40;83.80
75994;DHT22;64680;53.800;9.988;2023-02-16T16:47:40;6.40;83.90
75994;DHT22;64680;53.800;9.988;2023-02-16T16:57:44;6.40;83.90
75994;DHT22;64680;53.800;9.988;2023-02-16T17:00:11;6.40;83.90
75994;DHT22;64680;53.800;9.988;2023-02-16T17:02:37;6.40;83.80
75994;DHT22;64680;53.800;9.988;2023-02-16T17:05:03;6.40;83.80
75994;DHT22;64680;53.800;9.988;2023-02-16T17:07:29;6.40;83.90
75994;DHT22;64680;53.800;9.988;2023-02-16T17:09:56;6.40;83.90
75994;DHT22;64680;53.800;9.988;2023-02-16T17:12:22;6.40;83.90
75994;DHT22;64680;53.800;9.988;2023-02-16T17:14:49;6.40;83.90
75994;DHT22;64680;53.800;9.988;2023-02-16T17:17:14;6.40;83.90
75994;DHT22;64680;53.800;9.988;2023-02-16T17:19:40;6.40;83.90
75994;DHT22;64680;53.800;9.988;2023-02-16T17:22:13;6.40;83.90
75994;DHT22;64680;53.800;9.988;2023-02-16T17:24:40;6.40;83.90
75994;DHT22;64680;53.800;9.988;2023-02-16T17:27:05;6.40;83.90
75994;DHT22;64680;53.800;9.988;2023-02-16T17:29:31;6.40;84.00
75994;DHT22;64680;53.800;9.988;2023-02-16T17:31:57;6.40;83.90
75994;DHT22;64680;53.800;9.988;2023-02-16T17:34:23;6.40;83.90
75994;DHT22;64680;53.800;9.988;2023-02-16T17:37:03;6.40;84.00
75994;DHT22;64680;53.800;9.988;2023-02-16T17:39:32;6.40;83.90
75994;DHT22;64680;53.800;9.988;2023-02-16T17:41:58;6.40;83.90
75994;DHT22;64680;53.800;9.988;2023-02-16T17:44:25;6.40;84.00
75994;DHT22;64680;53.800;9.988;2023-02-16T17:46:52;6.40;83.90
75994;DHT22;64680;53.800;9.988;2023-02-16T17:49:17;6.30;83.90
75994;DHT22;64680;53.800;9.988;2023-02-16T17:51:43;6.40;83.90
75994;DHT22;64680;53.800;9.988;2023-02-16T17:54:09;6.40;83.90
75994;DHT22;64680;53.800;9.988;2023-02-16T17:56:36;6.40;83.90
75994;DHT22;64680;53.800;9.988;2023-02-16T17:59:04;6.40;83.90
75994;DHT22;64680;53.800;9.988;2023-02-16T18:01:29;6.40;83.90
75994;DHT22;64680;53.800;9.988;2023-02-16T18:03:57;6.40;83.90
75994;DHT22;64680;53.800;9.988;2023-02-16T18:06:23;6.40;83.90
75994;DHT22;64680;53.800;9.988;2023-02-16T18:08:50;6.40;83.90
75994;DHT22;64680;53.800;9.988;2023-02-16T18:11:16;6.40;83.90
75994;DHT22;64680;53.800;9.988;2023-02-16T18:13:42;6.40;83.90
75994;DHT22;64680;53.800;9.988;2023-02-16T18:16:13;6.40;83.90
75994;DHT22;64680;53.800;9.988;2023-02-16T18:18:39;6.40;83.90
75994;DHT22;64680;53.800;9.988;2023-02-16T18:21:05;6.40;83.90
75994;DHT22;64680;53.800;9.988;2023-02-16T18:23:31;6.40;84.00
75994;DHT22;64680;53.800;9.988;2023-02-16T18:25:57;6.40;83.90
75994;DHT22;64680;53.800;9.988;2023-02-16T18:28:29;6.40;83.90
75994;DHT22;64680;53.800;9.988;2023-02-16T18:30:58;6.40;83.80
75994;DHT22;64680;53.800;9.988;2023-02-16T18:33:25;6.30;83.90
75994;DHT22;64680;53.800;9.988;2023-02-16T18:35:53;6.40;83.90